createdAt,value
2018-11-12T13:16:33.607Z,15.90
2018-11-12T13:19:07.659Z,10.43
2018-11-12T13:21:41.022Z,12.37
2018-11-12T13:24:13.522Z,13.30
2018-11-12T13:26:43.088Z,12.80
2018-11-12T13:29:20.342Z,13.63
2018-11-12T13:31:52.009Z,13.87
2018-11-12T13:34:22.043Z,18.67
2018-11-12T13:36:53.289Z,14.20
2018-11-12T13:39:33.160Z,12.33
2018-11-12T13:42:08.842Z,12.60
2018-11-12T13:47:17.631Z,12.23
2018-11-12T13:50:15.031Z,16.13
2018-11-12T13:52:45.463Z,15.07
2018-11-12T13:55:15.669Z,12.63
2018-11-12T13:57:44.835Z,16.27
2018-11-12T14:00:17.222Z,16.63
2018-11-12T14:02:46.849Z,13.67
2018-11-12T14:05:18.017Z,14.50
2018-11-12T14:07:48.297Z,11.77
2018-11-12T14:10:18.771Z,12.47
2018-11-12T14:12:48.042Z,12.20
2018-11-12T14:15:20.577Z,10.07
2018-11-12T14:17:50.072Z,15.30
2018-11-12T14:20:19.585Z,14.37
2018-11-12T14:22:48.823Z,18.37
2018-11-12T14:25:18.794Z,11.40
2018-11-12T14:27:49.372Z,12.23
2018-11-12T14:30:20.545Z,15.67
2018-11-12T14:32:49.397Z,8.00
2018-11-12T14:35:19.151Z,11.23
2018-11-12T14:37:49.311Z,7.83
2018-11-12T14:40:19.182Z,10.90
2018-11-12T14:42:48.336Z,12.80
2018-11-12T14:45:18.590Z,7.37
2018-11-12T14:47:47.706Z,11.27
2018-11-12T14:50:17.648Z,7.20
2018-11-12T14:52:46.732Z,11.57
2018-11-12T14:55:16.530Z,12.43
2018-11-12T14:57:46.214Z,8.83
2018-11-12T15:00:20.259Z,8.10
2018-11-12T15:02:49.869Z,12.97
2018-11-12T15:05:21.012Z,17.87
2018-11-12T15:07:50.052Z,13.43
2018-11-12T15:10:19.267Z,10.60
2018-11-12T15:12:49.536Z,8.57
2018-11-12T15:15:29.248Z,8.57
2018-11-12T15:18:02.218Z,15.03
2018-11-12T15:20:37.951Z,8.93
2018-11-12T15:23:07.837Z,11.30
2018-11-12T15:25:36.724Z,12.73
2018-11-12T15:28:06.587Z,7.83
2018-11-12T15:30:35.322Z,7.53
2018-11-12T15:33:04.205Z,6.43
2018-11-12T15:35:33.164Z,8.40
2018-11-12T15:38:02.270Z,9.73
2018-11-12T15:40:31.054Z,6.13
2018-11-12T15:42:59.907Z,8.10
2018-11-12T15:45:28.691Z,10.33
2018-11-12T15:47:59.412Z,8.83
2018-11-12T15:50:32.711Z,8.13
2018-11-12T15:53:01.519Z,8.53
2018-11-12T15:55:30.312Z,13.27
2018-11-12T15:58:00.167Z,7.77
2018-11-12T16:00:30.575Z,7.40
2018-11-12T16:03:00.400Z,9.70
2018-11-12T16:05:29.501Z,10.83
2018-11-12T16:07:58.587Z,14.13
2018-11-12T16:10:30.526Z,14.20
2018-11-12T16:12:59.751Z,12.80
2018-11-12T16:15:30.601Z,11.07
2018-11-12T16:18:00.808Z,15.33
2018-11-12T16:20:33.703Z,11.93
2018-11-12T16:23:03.510Z,19.00
2018-11-12T16:25:32.346Z,15.00
2018-11-12T16:28:02.588Z,14.70
2018-11-12T16:30:32.021Z,14.23
2018-11-12T16:33:01.227Z,11.07
2018-11-12T16:35:32.213Z,15.83
2018-11-12T16:38:02.383Z,19.10
2018-11-12T16:40:32.093Z,15.67
2018-11-12T16:43:01.787Z,10.57
2018-11-12T16:45:31.279Z,11.77
2018-11-12T16:48:00.895Z,13.17
2018-11-12T16:50:31.566Z,9.53
2018-11-12T16:53:03.933Z,12.73
2018-11-12T16:55:33.847Z,8.87
2018-11-12T16:58:03.825Z,13.40
2018-11-12T17:00:32.807Z,13.70
2018-11-12T17:03:43.831Z,15.07
2018-11-12T17:06:12.892Z,11.07
2018-11-12T17:08:42.733Z,7.60
2018-11-12T17:11:12.489Z,9.23
2018-11-12T17:13:41.259Z,8.20
2018-11-12T17:16:10.205Z,10.23
2018-11-12T17:18:39.054Z,7.67
2018-11-12T17:21:07.983Z,7.60
2018-11-12T17:23:38.298Z,8.30
2018-11-12T17:26:07.866Z,7.97
2018-11-12T17:28:39.502Z,10.47
2018-11-12T17:31:11.965Z,10.30
2018-11-12T17:33:41.499Z,11.33
2018-11-12T17:36:13.717Z,7.70
2018-11-12T17:38:45.318Z,8.20
2018-11-12T17:41:18.020Z,7.17
2018-11-12T17:43:48.193Z,5.97
2018-11-12T17:46:21.064Z,10.23
2018-11-12T17:48:52.309Z,8.40
2018-11-12T17:51:22.731Z,9.93
2018-11-12T17:53:54.693Z,10.47
2018-11-12T17:56:37.458Z,11.67
2018-11-12T17:59:07.923Z,8.90
2018-11-12T18:01:38.616Z,8.00
2018-11-12T18:07:16.945Z,9.57
2018-11-12T18:09:46.713Z,11.23
2018-11-12T18:12:17.519Z,8.63
2018-11-12T18:14:47.269Z,9.03
2018-11-12T18:17:16.611Z,9.57
2018-11-12T18:19:46.991Z,11.90
2018-11-12T18:22:17.952Z,11.60
2018-11-12T18:24:48.276Z,8.53
2018-11-12T18:27:22.881Z,10.33
2018-11-12T18:29:52.084Z,8.03
2018-11-12T18:32:21.053Z,11.63
2018-11-12T18:34:56.380Z,11.40
2018-11-12T18:37:25.315Z,12.07
2018-11-12T18:39:54.179Z,14.43
2018-11-12T18:42:23.511Z,15.13
2018-11-12T18:44:54.262Z,13.60
2018-11-12T18:47:24.130Z,14.57
2018-11-12T18:49:54.815Z,15.90
2018-11-12T18:52:28.034Z,15.37
2018-11-12T18:54:57.132Z,16.47
2018-11-12T18:57:26.089Z,11.93
2018-11-12T18:59:55.059Z,13.57
2018-11-12T19:02:24.675Z,17.10
2018-11-12T19:04:55.751Z,19.37
2018-11-12T19:07:26.783Z,16.10
2018-11-12T19:09:58.427Z,14.87
2018-11-12T19:12:27.377Z,15.43
2018-11-12T19:15:01.037Z,13.43
2018-11-12T19:17:30.051Z,13.93
2018-11-12T19:19:59.347Z,14.83
2018-11-12T19:22:29.965Z,18.87
2018-11-12T19:25:02.522Z,16.00
2018-11-12T19:27:32.330Z,16.67
2018-11-12T19:30:03.916Z,14.03
2018-11-12T19:32:37.442Z,17.10
2018-11-12T19:35:12.995Z,20.43
2018-11-12T19:37:43.519Z,16.13
2018-11-12T19:40:15.387Z,20.47
2018-11-12T19:42:46.721Z,19.87
2018-11-12T19:45:18.180Z,15.90
2018-11-12T19:47:52.625Z,16.60
2018-11-12T19:50:46.842Z,17.40
2018-11-12T19:53:16.324Z,19.43
2018-11-12T19:55:46.262Z,17.80
2018-11-12T19:58:17.290Z,20.07
2018-11-12T20:00:46.494Z,18.03
2018-11-12T20:03:17.414Z,18.57
2018-11-12T20:05:46.344Z,19.00
2018-11-12T20:08:16.042Z,20.67
2018-11-12T20:10:51.852Z,20.47
2018-11-12T20:13:22.233Z,23.80
2018-11-12T20:15:52.147Z,20.27
2018-11-12T20:18:21.353Z,25.23
2018-11-12T20:20:50.370Z,28.30
2018-11-12T20:23:19.624Z,25.97
2018-11-12T20:25:49.111Z,25.50
2018-11-12T20:28:18.374Z,24.80
2018-11-12T20:30:47.435Z,22.80
2018-11-12T20:33:23.288Z,23.90
2018-11-12T20:35:53.084Z,25.07
2018-11-12T20:38:22.167Z,25.70
2018-11-12T20:40:51.285Z,25.90
2018-11-12T20:43:21.411Z,26.17
2018-11-12T20:46:01.121Z,27.77
2018-11-12T20:48:39.284Z,25.83
2018-11-12T20:51:14.814Z,27.63
2018-11-12T20:53:48.733Z,24.67
2018-11-12T20:56:20.951Z,29.70
2018-11-12T20:58:52.544Z,27.00
2018-11-12T21:01:22.469Z,27.23
2018-11-12T21:04:15.141Z,27.40
2018-11-12T21:06:52.566Z,28.47
2018-11-12T21:09:27.786Z,29.17
2018-11-12T21:11:57.897Z,30.40
2018-11-12T21:14:27.735Z,29.23
2018-11-12T21:16:59.493Z,29.73
2018-11-12T21:19:31.276Z,29.17
2018-11-12T21:22:02.991Z,30.87
2018-11-12T21:24:34.400Z,28.40
2018-11-12T21:27:14.481Z,29.30
2018-11-12T21:29:43.881Z,30.97
2018-11-12T21:32:14.960Z,33.30
2018-11-12T21:34:50.264Z,36.47
2018-11-12T21:37:19.654Z,31.70
2018-11-12T21:39:50.485Z,34.63
2018-11-12T21:42:26.357Z,28.40
2018-11-12T21:45:06.194Z,33.83
2018-11-12T21:47:49.110Z,33.83
2018-11-12T21:50:28.124Z,31.07
2018-11-12T21:53:04.131Z,31.70
2018-11-12T21:55:42.913Z,30.47
2018-11-12T21:59:30.183Z,27.83
2018-11-12T22:01:59.870Z,30.00
2018-11-12T22:04:29.180Z,31.33
2018-11-12T22:06:59.539Z,31.40
2018-11-12T22:09:29.719Z,29.10
2018-11-12T22:11:58.863Z,26.40
2018-11-12T22:14:29.000Z,25.30
2018-11-12T22:16:58.359Z,28.63
2018-11-12T22:19:30.600Z,31.47
2018-11-12T22:22:00.698Z,28.03
2018-11-12T22:24:29.921Z,26.67
2018-11-12T22:26:59.213Z,27.00
2018-11-12T22:29:29.307Z,27.03
2018-11-12T22:31:58.310Z,28.50
2018-11-12T22:34:27.438Z,26.87
2018-11-12T22:36:59.874Z,25.30
2018-11-12T22:39:36.001Z,30.30
2018-11-12T22:42:05.585Z,29.07
2018-11-12T22:44:36.115Z,29.10
2018-11-12T22:47:08.564Z,27.30
2018-11-12T22:49:46.812Z,28.43
2018-11-12T22:52:17.621Z,24.37
2018-11-12T22:54:48.862Z,26.13
2018-11-12T22:57:36.484Z,32.00
2018-11-12T23:00:28.555Z,26.03
2018-11-12T23:02:59.029Z,26.93
2018-11-12T23:05:30.590Z,28.00
2018-11-12T23:08:01.269Z,26.83
2018-11-12T23:10:31.951Z,24.50
2018-11-12T23:13:01.061Z,30.60
2018-11-12T23:15:52.568Z,27.23
2018-11-12T23:18:29.231Z,26.17
2018-11-12T23:21:04.190Z,26.27
2018-11-12T23:23:33.764Z,32.63
2018-11-12T23:26:07.762Z,30.43
2018-11-12T23:28:46.153Z,30.63
2018-11-12T23:31:16.700Z,37.83
2018-11-12T23:33:46.892Z,34.10
2018-11-12T23:36:17.174Z,28.47
2018-11-12T23:38:58.927Z,27.97
2018-11-12T23:41:32.318Z,33.03
2018-11-12T23:44:02.479Z,33.57
2018-11-12T23:46:31.616Z,32.13
2018-11-12T23:49:07.701Z,30.17
2018-11-12T23:51:42.857Z,31.20
2018-11-12T23:54:14.538Z,33.30
2018-11-12T23:56:55.139Z,28.80
2018-11-12T23:59:26.824Z,30.57
